Time;durP1;ratioP1;P1;durP2;ratioP2;P2;SDS_P1;SDS_P2;PMS_P1;PMS_P2;Temp;Humidity;BMP_temperature;BMP_pressure;BME280_temperature;BME280_humidity;BME280_pressure;Samples;Min_cycle;Max_cycle;Signal;HPM_P1;HPM_P2
2022/11/06 00:01:09;;;;;;;;;2.00;2.00;;;;;;;;5165658;28;8876;-76
2022/11/06 00:03:40;;;;;;;;;0.40;0.40;;;;;;;;5149662;28;8806;-77
2022/11/06 00:09:04;;;;;;;;;1.00;1.00;;;;;;;;5186207;28;8789;-76
2022/11/06 00:11:35;;;;;;;;;1.60;1.60;;;;;;;;5202205;28;8904;-76
2022/11/06 00:14:06;;;;;;;;;1.00;1.00;;;;;;;;5202344;28;8801;-77
2022/11/06 00:16:38;;;;;;;;;0.00;0.00;;;;;;;;5202259;28;8889;-76
2022/11/06 00:19:27;;;;;;;;;0.20;0.20;;;;;;;;5202659;28;8868;-76
2022/11/06 00:21:58;;;;;;;;;0.50;0.50;;;;;;;;5185704;28;8789;-78
2022/11/06 00:24:29;;;;;;;;;1.40;1.40;;;;;;;;5201719;28;11458;-77
2022/11/06 00:27:19;;;;;;;;;0.00;0.00;;;;;;;;5203253;28;8789;-78
2022/11/06 00:29:50;;;;;;;;;1.00;1.00;;;;;;;;5181129;28;8910;-78
2022/11/06 00:32:21;;;;;;;;;1.60;1.60;;;;;;;;5165321;28;8926;-78
2022/11/06 00:34:52;;;;;;;;;6.00;6.00;;;;;;;;5178467;28;8932;-78
2022/11/06 00:37:41;;;;;;;;;5.00;5.00;;;;;;;;5203059;28;8793;-77
2022/11/06 00:40:12;;;;;;;;;0.00;0.00;;;;;;;;5202037;28;8782;-77
2022/11/06 00:42:43;;;;;;;;;0.00;0.00;;;;;;;;5201728;28;9893;-77
2022/11/06 00:45:14;;;;;;;;;0.00;0.00;;;;;;;;5168975;28;8809;-77
2022/11/06 00:47:45;;;;;;;;;0.00;0.00;;;;;;;;5185215;28;10132;-77
2022/11/06 00:50:17;;;;;;;;;0.00;0.00;;;;;;;;5201106;28;9605;-77
2022/11/06 00:52:48;;;;;;;;;1.00;1.00;;;;;;;;5185027;28;9554;-77
2022/11/06 00:55:19;;;;;;;;;0.40;0.40;;;;;;;;5201895;28;8813;-78
2022/11/06 00:57:51;;;;;;;;;0.00;0.00;;;;;;;;5168940;28;8796;-77
2022/11/06 01:00:22;;;;;;;;;0.00;0.00;;;;;;;;5185192;28;9519;-77
2022/11/06 01:02:54;;;;;;;;;0.00;0.00;;;;;;;;5203535;27;8808;-78
2022/11/06 01:05:25;;;;;;;;;0.00;0.00;;;;;;;;5241586;27;8805;-77
2022/11/06 01:07:56;;;;;;;;;0.00;0.00;;;;;;;;5202108;28;8773;-77
2022/11/06 01:10:27;;;;;;;;;0.00;0.00;;;;;;;;5200394;28;8818;-77
2022/11/06 01:12:58;;;;;;;;;0.80;0.80;;;;;;;;5201377;28;9483;-78
2022/11/06 01:15:29;;;;;;;;;0.00;0.00;;;;;;;;5202339;28;8790;-77
2022/11/06 01:18:00;;;;;;;;;0.60;0.60;;;;;;;;5202049;28;8762;-78
2022/11/06 01:20:32;;;;;;;;;0.00;0.00;;;;;;;;5168561;28;8781;-78
2022/11/06 01:23:02;;;;;;;;;0.00;0.00;;;;;;;;5201009;28;8842;-78
2022/11/06 01:25:34;;;;;;;;;0.40;0.40;;;;;;;;5180413;28;8800;-77
2022/11/06 01:28:05;;;;;;;;;2.00;2.00;;;;;;;;5164330;28;8826;-77
2022/11/06 01:30:55;;;;;;;;;0.00;0.00;;;;;;;;5180760;28;8791;-75
2022/11/06 01:33:26;;;;;;;;;0.00;0.00;;;;;;;;5196634;28;8928;-76
2022/11/06 01:35:57;;;;;;;;;0.00;0.00;;;;;;;;5168543;28;8797;-76
2022/11/06 01:38:28;;;;;;;;;0.00;0.00;;;;;;;;5168543;28;8784;-75
2022/11/06 01:40:59;;;;;;;;;0.00;0.00;;;;;;;;5200920;28;9573;-74
2022/11/06 01:43:43;;;;;;;;;0.00;0.00;;;;;;;;5184681;28;8792;-74
2022/11/06 01:46:16;;;;;;;;;0.00;0.00;;;;;;;;5184317;28;9548;-74
2022/11/06 01:48:53;;;;;;;;;1.00;1.00;;;;;;;;5200387;28;8822;-79
2022/11/06 01:51:26;;;;;;;;;1.60;1.60;;;;;;;;5185037;28;9584;-81
2022/11/06 01:53:57;;;;;;;;;4.60;4.60;;;;;;;;5200776;28;9200;-80
2022/11/06 01:56:28;;;;;;;;;1.00;1.00;;;;;;;;5200796;28;8870;-81
2022/11/06 01:58:59;;;;;;;;;0.80;0.80;;;;;;;;5201023;28;8860;-80
2022/11/06 02:01:30;;;;;;;;;1.00;1.00;;;;;;;;5184746;28;8809;-80
2022/11/06 02:04:08;;;;;;;;;1.00;1.00;;;;;;;;5200420;28;8948;-79
2022/11/06 02:06:39;;;;;;;;;1.40;1.40;;;;;;;;5200474;28;8801;-79
2022/11/06 02:09:11;;;;;;;;;1.20;1.20;;;;;;;;5201646;28;8854;-80
2022/11/06 02:12:04;;;;;;;;;0.60;0.60;;;;;;;;5201043;28;8814;-79
2022/11/06 02:14:42;;;;;;;;;0.00;0.00;;;;;;;;5168099;28;8797;-79
2022/11/06 02:17:31;;;;;;;;;0.00;0.00;;;;;;;;5186494;28;8794;-80
2022/11/06 02:20:26;;;;;;;;;0.00;0.00;;;;;;;;5202109;28;8800;-78
2022/11/06 02:23:18;;;;;;;;;1.00;1.00;;;;;;;;5204082;28;8972;-81
2022/11/06 02:26:08;;;;;;;;;2.00;2.00;;;;;;;;5166768;28;8831;-80
2022/11/06 02:29:06;;;;;;;;;2.00;2.00;;;;;;;;5183260;28;8828;-77
2022/11/06 02:31:40;;;;;;;;;4.80;4.80;;;;;;;;5152732;28;8796;-77
2022/11/06 02:34:14;;;;;;;;;13.00;10.20;;;;;;;;5187380;28;8819;-76
2022/11/06 02:36:51;;;;;;;;;5.60;5.60;;;;;;;;5203285;28;8809;-76
2022/11/06 02:39:24;;;;;;;;;8.00;8.00;;;;;;;;5203711;28;8928;-76
2022/11/06 02:41:58;;;;;;;;;4.80;4.80;;;;;;;;5203617;28;8797;-79
2022/11/06 02:44:31;;;;;;;;;2.00;2.00;;;;;;;;5187235;28;8798;-79
2022/11/06 02:47:05;;;;;;;;;4.00;4.00;;;;;;;;5170611;28;9554;-78
2022/11/06 02:49:48;;;;;;;;;2.00;2.00;;;;;;;;5187213;28;8785;-79
2022/11/06 02:52:28;;;;;;;;;0.00;0.00;;;;;;;;5182671;28;8824;-81
2022/11/06 02:55:39;;;;;;;;;0.00;0.00;;;;;;;;5169185;28;8792;-80
2022/11/06 02:58:37;;;;;;;;;2.00;2.00;;;;;;;;5169199;28;8804;-81
2022/11/06 03:01:15;;;;;;;;;2.00;2.00;;;;;;;;5182990;28;8805;-82
2022/11/06 03:03:50;;;;;;;;;1.60;1.60;;;;;;;;5166591;28;8938;-82
2022/11/06 03:06:31;;;;;;;;;3.60;3.60;;;;;;;;5185939;28;8824;-81
2022/11/06 03:09:28;;;;;;;;;1.00;1.00;;;;;;;;5170992;28;8774;-82
2022/11/06 03:12:09;;;;;;;;;1.40;1.40;;;;;;;;5187419;28;8790;-86
2022/11/06 03:15:04;;;;;;;;;1.00;1.00;;;;;;;;5189239;28;8792;-82
2022/11/06 03:17:58;;;;;;;;;4.60;4.60;;;;;;;;5170448;28;8774;-81
2022/11/06 03:20:49;;;;;;;;;2.80;2.80;;;;;;;;5170522;28;8931;-80
2022/11/06 03:23:20;;;;;;;;;7.20;7.20;;;;;;;;5186334;28;8781;-81
2022/11/06 03:26:10;;;;;;;;;4.00;3.60;;;;;;;;5199555;28;8876;-81
2022/11/06 03:28:54;;;;;;;;;4.60;4.60;;;;;;;;5182552;28;8852;-82
2022/11/06 03:31:28;;;;;;;;;1.80;1.80;;;;;;;;5184275;28;8773;-82
2022/11/06 03:34:05;;;;;;;;;1.40;1.40;;;;;;;;5186425;28;8781;-81
2022/11/06 03:36:42;;;;;;;;;1.00;1.00;;;;;;;;5170288;28;8770;-80
2022/11/06 03:39:18;;;;;;;;;1.00;1.00;;;;;;;;5169886;28;8825;-79
2022/11/06 03:41:56;;;;;;;;;0.80;0.80;;;;;;;;5202960;28;8766;-77
2022/11/06 03:44:48;;;;;;;;;1.20;1.20;;;;;;;;5202843;28;8766;-76
2022/11/06 03:47:21;;;;;;;;;4.00;4.00;;;;;;;;5202050;28;8785;-77
2022/11/06 03:50:14;;;;;;;;;0.00;0.00;;;;;;;;5202565;28;8786;-79
2022/11/06 03:52:52;;;;;;;;;2.00;2.00;;;;;;;;5202255;28;8786;-81
2022/11/06 03:55:34;;;;;;;;;2.00;2.00;;;;;;;;5186402;28;8781;-81
2022/11/06 03:58:07;;;;;;;;;1.80;1.80;;;;;;;;5170063;28;8795;-80
2022/11/06 04:00:40;;;;;;;;;2.80;2.80;;;;;;;;5185658;28;8774;-80
2022/11/06 04:03:28;;;;;;;;;1.60;1.60;;;;;;;;5202318;28;8789;-79
2022/11/06 04:06:04;;;;;;;;;6.40;6.40;;;;;;;;5169049;28;8809;-79
2022/11/06 04:14:35;;;;;;;;;4.60;4.20;;;;;;;;5183767;28;8869;-78
2022/11/06 04:17:27;;;;;;;;;6.20;6.20;;;;;;;;5202880;28;8915;-76
2022/11/06 04:23:27;;;;;;;;;1.00;1.00;;;;;;;;5201515;28;8826;-78
2022/11/06 04:29:04;;;;;;;;;1.60;1.60;;;;;;;;5214094;28;8791;-86
2022/11/06 04:31:35;;;;;;;;;1.60;1.60;;;;;;;;5198375;28;8790;-80
2022/11/06 04:34:19;;;;;;;;;4.00;4.00;;;;;;;;5203321;28;8792;-82
2022/11/06 04:37:00;;;;;;;;;8.00;8.00;;;;;;;;5169103;28;8782;-79
2022/11/06 04:39:41;;;;;;;;;16.80;16.80;;;;;;;;5168843;28;8774;-83
2022/11/06 04:42:21;;;;;;;;;9.60;8.80;;;;;;;;5202948;28;8778;-83
2022/11/06 04:44:56;;;;;;;;;62.40;52.00;;;;;;;;5201376;28;8817;-82
2022/11/06 04:47:28;;;;;;;;;38.00;36.80;;;;;;;;5180872;28;8888;-90
2022/11/06 04:50:01;;;;;;;;;8.00;8.00;;;;;;;;5170028;28;9652;-83
2022/11/06 04:52:35;;;;;;;;;16.20;15.80;;;;;;;;5201185;28;8916;-80
2022/11/06 04:55:07;;;;;;;;;14.20;14.20;;;;;;;;5203125;28;8865;-77
2022/11/06 04:57:38;;;;;;;;;9.20;9.20;;;;;;;;5201558;28;8790;-77
2022/11/06 05:00:13;;;;;;;;;32.40;32.40;;;;;;;;5199093;28;8846;-82
2022/11/06 05:02:44;;;;;;;;;35.60;34.80;;;;;;;;5185215;28;8813;-80
2022/11/06 05:05:15;;;;;;;;;48.20;44.00;;;;;;;;5168423;28;8817;-81
2022/11/06 05:07:47;;;;;;;;;40.60;40.60;;;;;;;;5200613;28;8928;-77
2022/11/06 05:10:18;;;;;;;;;22.00;22.00;;;;;;;;5201365;28;8821;-86
2022/11/06 05:13:07;;;;;;;;;47.80;43.80;;;;;;;;5182951;28;8880;-82
2022/11/06 05:15:39;;;;;;;;;15.60;15.60;;;;;;;;5181340;28;9546;-79
2022/11/06 05:18:10;;;;;;;;;11.00;11.00;;;;;;;;5163455;28;9593;-79
2022/11/06 05:20:41;;;;;;;;;8.40;8.40;;;;;;;;5167690;28;8928;-75
2022/11/06 05:23:12;;;;;;;;;13.20;12.80;;;;;;;;5167834;28;8824;-74
2022/11/06 05:25:43;;;;;;;;;24.60;22.20;;;;;;;;5197905;28;8805;-72
2022/11/06 05:28:14;;;;;;;;;8.80;7.80;;;;;;;;5200095;28;8789;-74
2022/11/06 05:30:45;;;;;;;;;60.60;52.60;;;;;;;;5214191;28;8801;-75
2022/11/06 05:33:17;;;;;;;;;13.80;13.80;;;;;;;;5182516;28;8797;-77
2022/11/06 05:35:49;;;;;;;;;5.00;5.00;;;;;;;;5182495;28;8813;-75
2022/11/06 05:38:20;;;;;;;;;13.20;13.20;;;;;;;;5165885;28;8793;-73
2022/11/06 05:41:09;;;;;;;;;11.40;11.40;;;;;;;;5200310;28;8804;-73
2022/11/06 05:43:40;;;;;;;;;7.80;7.80;;;;;;;;5199013;28;8793;-75
2022/11/06 05:46:11;;;;;;;;;11.20;11.20;;;;;;;;5171067;28;8834;-76
2022/11/06 05:49:01;;;;;;;;;9.40;9.40;;;;;;;;5219627;28;9517;-72
2022/11/06 05:51:32;;;;;;;;;2.00;2.00;;;;;;;;5208049;28;8832;-75
2022/11/06 05:54:22;;;;;;;;;4.40;4.40;;;;;;;;5198638;28;8777;-75
2022/11/06 05:56:53;;;;;;;;;8.20;8.20;;;;;;;;5186192;28;8829;-75
2022/11/06 05:59:24;;;;;;;;;8.80;8.80;;;;;;;;5202304;28;8777;-73
2022/11/06 06:01:55;;;;;;;;;9.00;9.00;;;;;;;;5185594;28;9599;-72
2022/11/06 06:04:26;;;;;;;;;6.40;6.40;;;;;;;;5169617;28;8773;-75
2022/11/06 06:06:57;;;;;;;;;10.80;10.40;;;;;;;;5203000;28;8837;-72
2022/11/06 06:09:28;;;;;;;;;0.80;0.80;;;;;;;;5202569;28;8828;-73
2022/11/06 06:11:59;;;;;;;;;8.00;8.00;;;;;;;;5219280;28;8783;-73
2022/11/06 06:14:30;;;;;;;;;10.80;9.20;;;;;;;;5205915;28;8891;-73
2022/11/06 06:17:01;;;;;;;;;55.20;49.40;;;;;;;;5222775;28;8815;-73
2022/11/06 06:19:32;;;;;;;;;15.60;15.40;;;;;;;;5222381;28;8835;-75
2022/11/06 06:22:03;;;;;;;;;24.60;24.60;;;;;;;;5186745;28;8787;-72
2022/11/06 06:24:35;;;;;;;;;37.40;37.40;;;;;;;;5201433;28;8795;-74
2022/11/06 06:27:06;;;;;;;;;11.80;11.80;;;;;;;;5204737;28;8846;-73
2022/11/06 06:29:37;;;;;;;;;4.80;4.80;;;;;;;;5203384;28;8796;-75
2022/11/06 06:32:08;;;;;;;;;2.00;2.00;;;;;;;;5188234;28;8807;-73
2022/11/06 06:34:39;;;;;;;;;4.60;4.60;;;;;;;;5198096;28;8773;-75
2022/11/06 06:37:11;;;;;;;;;13.40;13.40;;;;;;;;5188383;28;8927;-73
2022/11/06 06:39:42;;;;;;;;;9.20;9.20;;;;;;;;5203221;28;9534;-73
2022/11/06 06:42:13;;;;;;;;;9.20;9.20;;;;;;;;5170788;28;9580;-75
2022/11/06 06:44:44;;;;;;;;;5.20;5.20;;;;;;;;5186581;28;8770;-75
2022/11/06 06:47:16;;;;;;;;;4.00;4.00;;;;;;;;5203503;28;8909;-77
2022/11/06 06:49:51;;;;;;;;;6.40;6.40;;;;;;;;5203387;28;9500;-76
2022/11/06 06:52:22;;;;;;;;;10.20;10.20;;;;;;;;5186282;28;8782;-75
2022/11/06 06:54:54;;;;;;;;;12.80;12.00;;;;;;;;5206887;28;8775;-76
2022/11/06 06:57:26;;;;;;;;;7.00;5.75;;;;;;;;5190983;28;8783;-76
2022/11/06 06:59:57;;;;;;;;;10.00;10.00;;;;;;;;5196471;28;9812;-75
2022/11/06 07:02:28;;;;;;;;;9.20;9.00;;;;;;;;5160336;28;8857;-74
2022/11/06 07:04:59;;;;;;;;;5.40;5.40;;;;;;;;5186540;28;8901;-74
2022/11/06 07:07:30;;;;;;;;;1.00;1.00;;;;;;;;5181992;28;8813;-72
2022/11/06 07:10:02;;;;;;;;;7.00;6.40;;;;;;;;5201315;28;11470;-72
2022/11/06 07:12:34;;;;;;;;;6.00;6.00;;;;;;;;5184534;28;8789;-73
2022/11/06 07:15:23;;;;;;;;;1.80;1.80;;;;;;;;5199496;28;8911;-73
2022/11/06 07:17:54;;;;;;;;;5.00;5.00;;;;;;;;5179853;28;8823;-73
2022/11/06 07:20:26;;;;;;;;;5.00;5.00;;;;;;;;5186896;28;8904;-74
2022/11/06 07:23:15;;;;;;;;;1.40;1.40;;;;;;;;5182889;28;8804;-73
2022/11/06 07:25:50;;;;;;;;;24.60;22.00;;;;;;;;5187811;28;8813;-73
2022/11/06 07:28:21;;;;;;;;;32.20;32.00;;;;;;;;5202539;28;8794;-74
2022/11/06 07:30:56;;;;;;;;;8.80;8.00;;;;;;;;5186145;28;8794;-74
2022/11/06 07:33:28;;;;;;;;;6.40;6.00;;;;;;;;5186384;28;9531;-75
2022/11/06 07:36:06;;;;;;;;;16.80;16.80;;;;;;;;5183158;28;9662;-79
2022/11/06 07:38:40;;;;;;;;;19.00;19.00;;;;;;;;5149450;28;8880;-78
2022/11/06 07:41:29;;;;;;;;;14.20;13.40;;;;;;;;5194751;28;9006;-79
2022/11/06 07:44:00;;;;;;;;;14.60;14.60;;;;;;;;5202689;28;9520;-75
2022/11/06 07:46:31;;;;;;;;;7.80;7.80;;;;;;;;5202507;28;8917;-74
2022/11/06 07:49:02;;;;;;;;;15.00;13.00;;;;;;;;5201925;28;8785;-73
2022/11/06 07:51:33;;;;;;;;;25.40;23.00;;;;;;;;5203670;28;8777;-77
2022/11/06 07:54:04;;;;;;;;;31.60;28.60;;;;;;;;5185944;28;8789;-75
2022/11/06 07:56:35;;;;;;;;;49.60;44.80;;;;;;;;5202094;28;8797;-76
2022/11/06 07:59:06;;;;;;;;;21.60;20.40;;;;;;;;5167113;28;8788;-75
2022/11/06 08:01:37;;;;;;;;;8.50;8.50;;;;;;;;5201896;28;8814;-77
2022/11/06 08:04:08;;;;;;;;;9.00;9.00;;;;;;;;5179209;28;11630;-79
2022/11/06 08:06:40;;;;;;;;;107.00;76.60;;;;;;;;5194616;28;11527;-74
2022/11/06 08:09:11;;;;;;;;;38.00;32.50;;;;;;;;5213395;28;9585;-71
2022/11/06 08:11:42;;;;;;;;;18.20;17.20;;;;;;;;5184563;28;11541;-76
2022/11/06 08:14:13;;;;;;;;;14.75;14.75;;;;;;;;5207141;28;8794;-74
2022/11/06 08:16:44;;;;;;;;;15.50;15.50;;;;;;;;5204693;28;9485;-76
2022/11/06 08:19:15;;;;;;;;;8.50;8.50;;;;;;;;5221833;28;9651;-75
2022/11/06 08:21:46;;;;;;;;;1.75;1.75;;;;;;;;5221393;27;10343;-73
2022/11/06 08:24:17;;;;;;;;;10.50;10.50;;;;;;;;5220925;28;11359;-75
2022/11/06 08:26:48;;;;;;;;;13.40;11.80;;;;;;;;5221917;28;11408;-75
2022/11/06 08:29:37;;;;;;;;;10.00;9.60;;;;;;;;5221317;28;8783;-75
2022/11/06 08:32:08;;;;;;;;;4.20;3.40;;;;;;;;5203073;28;8798;-75
2022/11/06 08:34:41;;;;;;;;;3.50;3.50;;;;;;;;5204120;28;8797;-75
2022/11/06 08:37:12;;;;;;;;;7.80;7.80;;;;;;;;5188114;28;11502;-75
2022/11/06 08:39:43;;;;;;;;;17.25;16.00;;;;;;;;5221162;27;8901;-75
2022/11/06 08:42:14;;;;;;;;;21.60;19.00;;;;;;;;5220614;27;11468;-75
2022/11/06 08:44:45;;;;;;;;;10.20;10.20;;;;;;;;5220611;28;8933;-75
2022/11/06 08:47:16;;;;;;;;;10.25;10.25;;;;;;;;5221862;28;8944;-76
2022/11/06 08:49:47;;;;;;;;;8.60;8.60;;;;;;;;5205125;28;10690;-75
2022/11/06 08:52:18;;;;;;;;;8.20;6.40;;;;;;;;5188816;28;9520;-75
2022/11/06 08:54:49;;;;;;;;;6.40;6.40;;;;;;;;5222317;28;8811;-76
2022/11/06 08:57:39;;;;;;;;;7.80;7.80;;;;;;;;5222677;28;8781;-76
2022/11/06 09:00:11;;;;;;;;;7.80;7.80;;;;;;;;5205569;28;8763;-76
2022/11/06 09:03:10;;;;;;;;;7.00;7.00;;;;;;;;5222579;28;8811;-76
2022/11/06 09:05:41;;;;;;;;;3.00;3.00;;;;;;;;5189130;28;8887;-76
2022/11/06 09:08:13;;;;;;;;;8.50;7.75;;;;;;;;5188991;28;8779;-75
2022/11/06 09:10:44;;;;;;;;;12.20;12.20;;;;;;;;5222055;28;9145;-75
2022/11/06 09:13:15;;;;;;;;;14.00;14.00;;;;;;;;5221935;28;8902;-75
2022/11/06 09:15:46;;;;;;;;;10.20;10.20;;;;;;;;5221550;28;11482;-75
2022/11/06 09:18:16;;;;;;;;;10.00;10.00;;;;;;;;5221634;28;8803;-75
2022/11/06 09:20:47;;;;;;;;;10.50;10.50;;;;;;;;5205094;28;10850;-76
2022/11/06 09:23:18;;;;;;;;;9.20;7.80;;;;;;;;5204292;28;8829;-76
2022/11/06 09:25:49;;;;;;;;;7.00;7.00;;;;;;;;5204712;28;8834;-76
2022/11/06 09:28:38;;;;;;;;;14.00;14.00;;;;;;;;5206918;28;12205;-74
2022/11/06 09:31:28;;;;;;;;;6.80;6.40;;;;;;;;5220196;28;8759;-75
2022/11/06 09:33:59;;;;;;;;;11.00;11.00;;;;;;;;5220327;27;8803;-75
2022/11/06 09:36:48;;;;;;;;;21.20;21.20;;;;;;;;5206164;28;8787;-75
2022/11/06 09:39:38;;;;;;;;;27.20;26.80;;;;;;;;5206010;28;8779;-74
2022/11/06 09:42:31;;;;;;;;;21.80;19.40;;;;;;;;5203638;28;8846;-74
2022/11/06 09:45:10;;;;;;;;;14.20;13.80;;;;;;;;5202778;28;8913;-74
2022/11/06 09:48:10;;;;;;;;;9.80;8.60;;;;;;;;5221320;28;8967;-75
2022/11/06 09:50:46;;;;;;;;;6.40;6.40;;;;;;;;5204084;28;9473;-76
2022/11/06 09:53:27;;;;;;;;;27.80;27.20;;;;;;;;5187232;28;8798;-79
2022/11/06 09:56:00;;;;;;;;;12.40;12.40;;;;;;;;5203956;28;8837;-75
2022/11/06 09:58:51;;;;;;;;;15.80;14.00;;;;;;;;5220401;28;8770;-75
2022/11/06 10:01:26;;;;;;;;;25.00;23.80;;;;;;;;5217780;27;8814;-74
2022/11/06 10:03:58;;;;;;;;;41.20;32.60;;;;;;;;5201479;28;8789;-74
2022/11/06 10:06:29;;;;;;;;;28.00;27.60;;;;;;;;5197934;28;8837;-77
2022/11/06 10:09:02;;;;;;;;;25.20;25.20;;;;;;;;5170472;28;8800;-77
2022/11/06 10:11:49;;;;;;;;;29.60;28.20;;;;;;;;5179923;28;8784;-76
2022/11/06 10:14:27;;;;;;;;;38.60;35.80;;;;;;;;5163635;28;8795;-78
2022/11/06 10:17:12;;;;;;;;;41.40;38.80;;;;;;;;5163578;28;8817;-77
2022/11/06 10:19:46;;;;;;;;;59.00;44.60;;;;;;;;5182415;28;8804;-77
2022/11/06 10:22:19;;;;;;;;;32.20;32.20;;;;;;;;5200315;28;9596;-76
2022/11/06 10:25:13;;;;;;;;;20.60;20.60;;;;;;;;5201236;28;8786;-77
2022/11/06 10:28:01;;;;;;;;;27.00;25.20;;;;;;;;5188764;28;8904;-77
2022/11/06 10:30:50;;;;;;;;;53.20;45.60;;;;;;;;5200966;28;9512;-78
2022/11/06 10:33:32;;;;;;;;;31.40;29.80;;;;;;;;5200068;28;9491;-76
2022/11/06 10:36:06;;;;;;;;;36.80;35.00;;;;;;;;5200543;28;8786;-73
2022/11/06 10:38:39;;;;;;;;;56.60;45.20;;;;;;;;5200147;28;8788;-75
2022/11/06 10:41:25;;;;;;;;;39.60;38.40;;;;;;;;5168216;28;8789;-75
2022/11/06 10:44:01;;;;;;;;;31.40;31.40;;;;;;;;5204507;28;8800;-78
2022/11/06 10:46:35;;;;;;;;;26.20;23.80;;;;;;;;5184270;28;8835;-77
2022/11/06 10:49:27;;;;;;;;;27.20;26.60;;;;;;;;5202360;28;9516;-77
2022/11/06 10:52:07;;;;;;;;;27.40;27.40;;;;;;;;5170746;28;8781;-76
2022/11/06 10:54:38;;;;;;;;;31.60;30.60;;;;;;;;5170204;28;8785;-75
2022/11/06 10:57:42;;;;;;;;;49.75;44.00;;;;;;;;5202974;28;8832;-74
2022/11/06 11:00:32;;;;;;;;;51.20;42.80;;;;;;;;5206285;28;9516;-73
2022/11/06 11:03:05;;;;;;;;;39.80;38.80;;;;;;;;5203957;28;8927;-73
2022/11/06 11:05:40;;;;;;;;;36.40;35.20;;;;;;;;5186892;28;8832;-76
2022/11/06 11:08:35;;;;;;;;;46.00;41.00;;;;;;;;5170685;28;8773;-75
2022/11/06 11:11:09;;;;;;;;;30.60;30.60;;;;;;;;5189318;28;8839;-75
2022/11/06 11:13:44;;;;;;;;;34.60;33.40;;;;;;;;5204122;28;8793;-74
2022/11/06 11:16:36;;;;;;;;;25.60;25.40;;;;;;;;5202871;28;8808;-78
2022/11/06 11:19:15;;;;;;;;;37.20;33.60;;;;;;;;5202514;28;8836;-75
2022/11/06 11:21:53;;;;;;;;;26.40;26.40;;;;;;;;5186461;28;9508;-77
2022/11/06 11:24:24;;;;;;;;;26.20;23.00;;;;;;;;5202073;28;8801;-76
2022/11/06 11:27:00;;;;;;;;;17.00;17.00;;;;;;;;5182197;28;8823;-76
2022/11/06 11:29:33;;;;;;;;;7.80;7.40;;;;;;;;5149966;28;8792;-77
2022/11/06 11:32:05;;;;;;;;;13.60;13.40;;;;;;;;5191591;28;8798;-75
2022/11/06 11:34:44;;;;;;;;;17.20;16.20;;;;;;;;5183939;28;8836;-75
2022/11/06 11:37:23;;;;;;;;;19.60;19.40;;;;;;;;5166208;28;8796;-75
2022/11/06 11:40:30;;;;;;;;;15.80;15.00;;;;;;;;5183074;28;8772;-76
2022/11/06 11:43:19;;;;;;;;;21.20;21.20;;;;;;;;5182095;28;8788;-75
2022/11/06 11:46:17;;;;;;;;;27.20;26.20;;;;;;;;5165859;28;8958;-76
2022/11/06 11:48:56;;;;;;;;;28.00;27.40;;;;;;;;5178177;28;8814;-76
2022/11/06 11:51:28;;;;;;;;;33.00;29.40;;;;;;;;5182886;28;8839;-76
2022/11/06 11:54:12;;;;;;;;;30.00;27.80;;;;;;;;5184931;28;8813;-76
2022/11/06 11:57:05;;;;;;;;;37.80;36.80;;;;;;;;5201691;28;8812;-76
2022/11/06 11:59:41;;;;;;;;;41.80;38.40;;;;;;;;5202588;28;8790;-77
2022/11/06 12:02:21;;;;;;;;;56.80;45.20;;;;;;;;5165213;28;8824;-76
2022/11/06 12:04:55;;;;;;;;;55.60;45.20;;;;;;;;5181749;28;8776;-77
2022/11/06 12:07:30;;;;;;;;;52.60;46.60;;;;;;;;5165028;28;8780;-76
2022/11/06 12:10:11;;;;;;;;;55.40;48.80;;;;;;;;5182078;28;8800;-76
2022/11/06 12:12:47;;;;;;;;;53.60;45.80;;;;;;;;5181450;28;8792;-74
2022/11/06 12:15:26;;;;;;;;;64.60;55.40;;;;;;;;5165401;28;8798;-75
2022/11/06 12:18:00;;;;;;;;;37.40;36.60;;;;;;;;5180900;28;8810;-74
2022/11/06 12:20:49;;;;;;;;;45.20;41.80;;;;;;;;5165405;28;8803;-76
2022/11/06 12:23:26;;;;;;;;;50.20;43.40;;;;;;;;5165190;28;8800;-75
2022/11/06 12:26:05;;;;;;;;;50.00;44.20;;;;;;;;5182423;28;8942;-74
2022/11/06 12:28:39;;;;;;;;;45.80;41.80;;;;;;;;5165516;28;8805;-75
2022/11/06 12:31:17;;;;;;;;;81.60;63.60;;;;;;;;5180983;28;8812;-76
2022/11/06 12:33:48;;;;;;;;;66.40;53.60;;;;;;;;5182452;28;8873;-77
2022/11/06 12:36:21;;;;;;;;;62.60;48.00;;;;;;;;5164892;28;8808;-76
2022/11/06 12:39:00;;;;;;;;;73.80;55.60;;;;;;;;5165184;28;8913;-76
2022/11/06 12:41:43;;;;;;;;;48.80;42.40;;;;;;;;5148791;28;9569;-76
2022/11/06 12:44:15;;;;;;;;;50.80;43.00;;;;;;;;5181017;28;8834;-78
2022/11/06 12:46:54;;;;;;;;;38.20;37.20;;;;;;;;5181129;28;8843;-79
2022/11/06 12:49:46;;;;;;;;;31.80;30.60;;;;;;;;5181078;28;8768;-77
2022/11/06 12:52:20;;;;;;;;;16.60;14.20;;;;;;;;5163600;28;8812;-78
2022/11/06 12:55:05;;;;;;;;;39.80;38.00;;;;;;;;5163506;28;8841;-77
2022/11/06 12:57:51;;;;;;;;;41.00;37.60;;;;;;;;5163157;28;9527;-78
2022/11/06 13:00:24;;;;;;;;;59.00;47.00;;;;;;;;5179505;28;8826;-77
2022/11/06 13:03:17;;;;;;;;;42.60;36.80;;;;;;;;5165566;28;9534;-77
2022/11/06 13:05:51;;;;;;;;;55.00;44.60;;;;;;;;5162633;28;8952;-76
2022/11/06 13:08:58;;;;;;;;;45.20;39.00;;;;;;;;5179509;28;8876;-78
2022/11/06 13:11:46;;;;;;;;;48.80;42.20;;;;;;;;5178988;28;8963;-76
2022/11/06 13:14:23;;;;;;;;;34.00;32.80;;;;;;;;5162492;28;8811;-75
2022/11/06 13:17:15;;;;;;;;;35.00;33.80;;;;;;;;5190199;28;9040;-76
2022/11/06 13:19:56;;;;;;;;;43.40;41.40;;;;;;;;5181340;28;8845;-76
2022/11/06 13:22:34;;;;;;;;;41.20;39.80;;;;;;;;5198686;28;9487;-77
2022/11/06 13:25:27;;;;;;;;;41.80;38.80;;;;;;;;5200480;28;9524;-76
2022/11/06 13:28:01;;;;;;;;;44.40;38.40;;;;;;;;5183504;28;8890;-75
2022/11/06 13:30:51;;;;;;;;;39.20;36.60;;;;;;;;5178460;28;8811;-75
2022/11/06 13:33:55;;;;;;;;;35.40;31.80;;;;;;;;5178874;28;8953;-76
2022/11/06 13:36:27;;;;;;;;;85.80;66.80;;;;;;;;5146130;28;8787;-76
2022/11/06 13:39:24;;;;;;;;;66.80;52.80;;;;;;;;5177340;28;8880;-72
2022/11/06 13:41:55;;;;;;;;;38.20;37.20;;;;;;;;5219522;28;8998;-75
2022/11/06 13:44:27;;;;;;;;;33.60;31.00;;;;;;;;5219338;27;8782;-75
2022/11/06 13:47:21;;;;;;;;;32.60;31.20;;;;;;;;5219625;28;8845;-72
2022/11/06 13:50:04;;;;;;;;;31.40;30.80;;;;;;;;5173862;28;8826;-75
2022/11/06 13:52:35;;;;;;;;;35.40;31.00;;;;;;;;5178120;28;8791;-73
2022/11/06 13:55:28;;;;;;;;;28.40;28.00;;;;;;;;5179650;28;9490;-76
2022/11/06 13:58:08;;;;;;;;;33.20;32.20;;;;;;;;5179508;28;9607;-78
2022/11/06 14:01:12;;;;;;;;;35.80;30.80;;;;;;;;5185179;28;9651;-76
2022/11/06 14:04:01;;;;;;;;;34.20;33.60;;;;;;;;5212311;28;8795;-77
2022/11/06 14:06:53;;;;;;;;;31.40;30.40;;;;;;;;5185637;28;8805;-79
2022/11/06 14:09:25;;;;;;;;;31.20;29.00;;;;;;;;5200229;28;9618;-78
2022/11/06 14:12:17;;;;;;;;;24.40;24.40;;;;;;;;5186117;28;8927;-76
2022/11/06 14:14:48;;;;;;;;;33.60;33.60;;;;;;;;5211929;28;8782;-78
2022/11/06 14:17:22;;;;;;;;;26.20;25.40;;;;;;;;5182371;28;9627;-78
2022/11/06 14:19:53;;;;;;;;;35.60;35.20;;;;;;;;5183364;28;8815;-78
2022/11/06 14:22:29;;;;;;;;;35.40;33.80;;;;;;;;5203866;28;8850;-78
2022/11/06 14:25:00;;;;;;;;;44.20;41.80;;;;;;;;5170712;28;8837;-75
2022/11/06 14:27:34;;;;;;;;;26.20;25.00;;;;;;;;5181602;28;8800;-75
2022/11/06 14:30:16;;;;;;;;;36.20;33.00;;;;;;;;5187214;28;8799;-76
2022/11/06 14:32:48;;;;;;;;;30.80;29.40;;;;;;;;5211903;28;8877;-78
2022/11/06 14:35:28;;;;;;;;;26.40;25.60;;;;;;;;5188823;28;9612;-76
2022/11/06 14:38:29;;;;;;;;;37.20;32.60;;;;;;;;5203648;28;8785;-76
2022/11/06 14:41:00;;;;;;;;;56.80;49.60;;;;;;;;5215983;28;8812;-76
2022/11/06 14:43:32;;;;;;;;;34.00;33.20;;;;;;;;5150393;28;8865;-75
2022/11/06 14:46:06;;;;;;;;;36.00;35.00;;;;;;;;5182855;28;9571;-76
2022/11/06 14:49:04;;;;;;;;;32.80;30.00;;;;;;;;5189194;28;8916;-78
2022/11/06 14:51:35;;;;;;;;;24.00;21.60;;;;;;;;5202893;28;8782;-75
2022/11/06 14:54:19;;;;;;;;;32.00;32.00;;;;;;;;5211016;28;8779;-75
2022/11/06 14:56:53;;;;;;;;;28.40;28.40;;;;;;;;5185317;28;8837;-77
2022/11/06 14:59:36;;;;;;;;;39.60;35.40;;;;;;;;5180649;28;8763;-76
2022/11/06 15:02:14;;;;;;;;;27.40;26.80;;;;;;;;5203102;28;9558;-75
2022/11/06 15:05:05;;;;;;;;;29.80;29.60;;;;;;;;5202953;28;8807;-77
2022/11/06 15:07:36;;;;;;;;;30.00;29.20;;;;;;;;5185128;28;8801;-77
2022/11/06 15:10:41;;;;;;;;;39.40;37.80;;;;;;;;5185375;28;8802;-77
2022/11/06 15:13:15;;;;;;;;;62.00;53.00;;;;;;;;5166661;28;8780;-77
2022/11/06 15:16:09;;;;;;;;;25.20;25.00;;;;;;;;5174204;28;8816;-75
2022/11/06 15:19:04;;;;;;;;;37.80;36.80;;;;;;;;5202442;28;8821;-76
2022/11/06 15:21:40;;;;;;;;;36.20;36.20;;;;;;;;5183388;28;8813;-76
2022/11/06 15:24:16;;;;;;;;;26.40;22.60;;;;;;;;5184598;28;8849;-78
2022/11/06 15:26:53;;;;;;;;;37.20;35.80;;;;;;;;5184311;28;9603;-75
2022/11/06 15:29:25;;;;;;;;;25.80;24.80;;;;;;;;5180754;28;8824;-76
2022/11/06 15:31:59;;;;;;;;;37.00;35.20;;;;;;;;5204784;28;8795;-77
2022/11/06 15:34:32;;;;;;;;;23.60;23.20;;;;;;;;5181846;28;8957;-75
2022/11/06 15:37:11;;;;;;;;;19.20;18.20;;;;;;;;5180487;28;8800;-77
2022/11/06 15:39:52;;;;;;;;;28.40;26.80;;;;;;;;5181212;28;8811;-76
2022/11/06 15:42:27;;;;;;;;;24.00;22.80;;;;;;;;5188295;28;8791;-81
2022/11/06 15:45:06;;;;;;;;;21.60;20.80;;;;;;;;5191191;28;8946;-74
2022/11/06 15:47:37;;;;;;;;;28.40;27.80;;;;;;;;5180459;28;8800;-74
2022/11/06 15:50:11;;;;;;;;;20.50;20.00;;;;;;;;5180373;28;8814;-74
2022/11/06 15:52:43;;;;;;;;;26.20;20.20;;;;;;;;5187316;28;11496;-74
2022/11/06 15:55:25;;;;;;;;;25.00;25.00;;;;;;;;5204646;28;8834;-74
2022/11/06 15:58:05;;;;;;;;;25.00;25.00;;;;;;;;5221149;28;8801;-73